createdAt,value
2018-11-21T00:01:21.330Z,56.02
2018-11-21T00:03:51.763Z,56.04
2018-11-21T00:06:22.017Z,56.01
2018-11-21T00:08:51.448Z,55.72
2018-11-21T00:11:23.202Z,55.98
2018-11-21T00:13:52.944Z,55.91
2018-11-21T00:16:23.204Z,55.95
2018-11-21T00:18:53.242Z,55.97
2018-11-21T00:21:22.884Z,56.09
2018-11-21T00:24:37.436Z,55.98
2018-11-21T00:27:06.603Z,55.88
2018-11-21T00:29:35.839Z,55.90
2018-11-21T00:32:24.532Z,56.40
2018-11-21T00:34:53.706Z,56.27
2018-11-21T00:37:23.980Z,56.16
2018-11-21T00:39:54.413Z,56.01
2018-11-21T00:42:27.090Z,55.85
2018-11-21T00:44:58.152Z,55.93
2018-11-21T00:47:27.000Z,56.12
2018-11-21T00:49:56.734Z,55.92
2018-11-21T00:52:29.517Z,56.09
2018-11-21T00:55:02.425Z,56.21
2018-11-21T00:57:32.486Z,56.35
2018-11-21T01:00:15.645Z,56.51
2018-11-21T01:02:45.573Z,56.39
2018-11-21T01:05:15.327Z,56.14
2018-11-21T01:07:47.249Z,56.01
2018-11-21T01:10:20.671Z,56.05
2018-11-21T01:12:54.721Z,56.66
2018-11-21T01:15:28.825Z,56.30
2018-11-21T01:18:01.704Z,56.02
2018-11-21T01:20:37.789Z,56.06
2018-11-21T01:23:08.622Z,55.90
2018-11-21T01:25:41.275Z,56.06
2018-11-21T01:28:10.643Z,55.87
2018-11-21T01:30:42.341Z,55.81
2018-11-21T01:33:14.366Z,56.25
2018-11-21T01:35:46.247Z,56.23
2018-11-21T01:38:16.665Z,56.20
2018-11-21T01:40:46.246Z,55.98
2018-11-21T01:43:16.300Z,55.94
2018-11-21T01:45:47.905Z,55.95
2018-11-21T01:48:18.311Z,55.88
2018-11-21T01:50:54.757Z,56.05
2018-11-21T01:53:24.826Z,56.08
2018-11-21T01:55:54.543Z,56.01
2018-11-21T01:58:31.179Z,56.00
2018-11-21T02:01:01.944Z,55.81
2018-11-21T02:03:39.265Z,55.91
2018-11-21T02:06:10.062Z,56.18
2018-11-21T02:08:40.082Z,56.48
2018-11-21T02:11:10.054Z,56.49
2018-11-21T02:13:41.395Z,56.56
2018-11-21T02:16:12.830Z,56.55
2018-11-21T02:18:42.081Z,56.55
2018-11-21T02:21:11.649Z,56.78
2018-11-21T02:23:40.961Z,56.80
2018-11-21T02:26:11.732Z,56.86
2018-11-21T02:28:41.836Z,57.00
2018-11-21T02:31:16.218Z,56.82
2018-11-21T02:33:46.200Z,57.15
2018-11-21T02:36:16.010Z,57.16
2018-11-21T02:38:45.498Z,57.30
2018-11-21T02:41:15.090Z,57.11
2018-11-21T02:43:44.191Z,56.90
2018-11-21T02:46:14.288Z,56.96
2018-11-21T02:48:46.062Z,57.17
2018-11-21T02:51:16.764Z,57.01
2018-11-21T02:53:56.293Z,56.87
2018-11-21T02:57:02.959Z,57.02
2018-11-21T02:59:32.448Z,57.01
2018-11-21T03:02:01.714Z,57.03
2018-11-21T03:04:31.324Z,56.89
2018-11-21T03:07:01.548Z,56.86
2018-11-21T03:09:31.149Z,57.14
2018-11-21T03:12:00.445Z,57.14
2018-11-21T03:14:30.268Z,56.85
2018-11-21T03:17:00.722Z,57.01
2018-11-21T03:19:30.709Z,56.77
2018-11-21T03:22:01.140Z,56.56
2018-11-21T03:24:30.653Z,56.42
2018-11-21T03:27:03.582Z,56.38
2018-11-21T03:29:38.438Z,56.49
2018-11-21T03:32:08.074Z,56.41
2018-11-21T03:34:44.506Z,56.56
2018-11-21T03:37:21.083Z,57.08
2018-11-21T03:39:54.150Z,57.05
2018-11-21T03:42:26.563Z,56.83
2018-11-21T03:45:20.684Z,56.73
2018-11-21T03:50:55.861Z,56.80
2018-11-21T03:53:59.231Z,56.70
2018-11-21T03:56:57.576Z,56.74
2018-11-21T04:02:16.728Z,57.35
2018-11-21T04:04:46.664Z,57.46
2018-11-21T04:07:36.839Z,57.43
2018-11-21T04:10:46.916Z,57.76
2018-11-21T04:13:17.726Z,57.88
2018-11-21T04:16:05.810Z,57.67
2018-11-21T04:18:35.603Z,57.51
2018-11-21T04:21:53.063Z,57.34
2018-11-21T04:37:08.742Z,57.70
2018-11-21T04:39:38.095Z,57.82
2018-11-21T04:42:07.305Z,57.88
2018-11-21T04:44:39.195Z,58.09
2018-11-21T04:47:14.044Z,57.95
2018-11-21T04:49:50.971Z,57.91
2018-11-21T04:56:01.064Z,57.94
2018-11-21T04:58:33.292Z,58.05
2018-11-21T05:01:10.112Z,57.81
2018-11-21T05:03:40.808Z,57.74
2018-11-21T05:06:10.080Z,57.79
2018-11-21T05:08:41.047Z,57.75
2018-11-21T05:11:11.130Z,58.03
2018-11-21T05:13:42.921Z,58.20
2018-11-21T05:16:13.161Z,58.39
2018-11-21T05:18:42.883Z,58.35
2018-11-21T05:21:13.344Z,58.15
2018-11-21T05:23:43.096Z,58.15
2018-11-21T05:26:13.045Z,58.26
2018-11-21T05:28:42.408Z,58.25
2018-11-21T05:31:12.058Z,58.08
2018-11-21T05:33:41.632Z,58.60
2018-11-21T05:36:11.190Z,58.53
2018-11-21T05:38:54.674Z,58.91
2018-11-21T05:41:24.072Z,59.83
2018-11-21T05:44:02.699Z,60.86
2018-11-21T05:46:41.849Z,60.99
2018-11-21T05:49:11.625Z,60.95
2018-11-21T05:51:41.525Z,61.14
2018-11-21T05:54:11.510Z,61.58
2018-11-21T05:56:44.411Z,61.73
2018-11-21T05:59:13.914Z,61.98
2018-11-21T06:01:45.077Z,61.85
2018-11-21T06:04:19.342Z,61.63
2018-11-21T06:06:49.355Z,61.62
2018-11-21T06:09:18.538Z,61.65
2018-11-21T06:11:54.882Z,61.39
2018-11-21T06:14:32.964Z,61.29
2018-11-21T06:17:02.192Z,61.38
2018-11-21T06:19:33.387Z,61.61
2018-11-21T06:22:02.673Z,62.16
2018-11-21T06:24:35.110Z,62.26
2018-11-21T06:27:06.193Z,62.09
2018-11-21T06:29:42.934Z,61.88
2018-11-21T06:32:20.065Z,61.83
2018-11-21T06:34:52.697Z,61.85
2018-11-21T06:37:29.922Z,61.77
2018-11-21T06:40:00.942Z,61.75
2018-11-21T06:42:39.852Z,61.57
2018-11-21T06:45:13.712Z,61.50
2018-11-21T06:47:48.156Z,61.66
2018-11-21T06:50:22.754Z,61.75
2018-11-21T06:52:52.555Z,62.70
2018-11-21T06:55:24.206Z,62.57
2018-11-21T06:57:55.727Z,62.18
2018-11-21T07:00:27.857Z,62.10
2018-11-21T07:03:09.682Z,62.27
2018-11-21T07:05:40.655Z,62.59
2018-11-21T07:08:11.718Z,62.92
2018-11-21T07:10:41.092Z,63.08
2018-11-21T07:13:11.755Z,62.92
2018-11-21T07:15:44.448Z,63.00
2018-11-21T07:18:27.724Z,62.58
2018-11-21T07:20:59.565Z,62.23
2018-11-21T07:23:41.193Z,61.93
2018-11-21T07:26:10.420Z,61.85
2018-11-21T07:28:43.288Z,61.77
2018-11-21T07:31:13.678Z,61.79
2018-11-21T07:33:46.506Z,61.79
2018-11-21T07:36:14.674Z,61.99
2018-11-21T07:41:33.724Z,62.14
2018-11-21T07:44:23.353Z,61.96
2018-11-21T07:47:05.412Z,62.01
2018-11-21T07:49:54.588Z,62.24
2018-11-21T07:52:44.378Z,62.10
2018-11-21T07:55:33.134Z,62.06
2018-11-21T07:58:24.189Z,61.78
2018-11-21T08:01:21.575Z,61.91
2018-11-21T08:04:03.234Z,61.82
2018-11-21T08:06:36.761Z,61.58
2018-11-21T08:09:40.312Z,61.53
2018-11-21T08:12:42.746Z,61.64
2018-11-21T08:15:50.579Z,61.61
2018-11-21T08:25:12.954Z,61.30
2018-11-21T08:28:16.569Z,61.13
2018-11-21T08:31:30.441Z,61.18
2018-11-21T08:34:39.806Z,60.89
2018-11-21T08:37:14.394Z,60.55
2018-11-21T08:39:46.024Z,60.45
2018-11-21T08:42:20.961Z,60.29
2018-11-21T08:45:14.299Z,60.18
2018-11-21T08:48:24.924Z,59.84
2018-11-21T08:50:52.130Z,59.64
2018-11-21T08:53:22.137Z,59.63
2018-11-21T08:55:52.825Z,59.48
2018-11-21T08:58:30.106Z,56.99
2018-11-21T09:13:19.509Z,43.15
2018-11-21T09:16:08.060Z,44.05
2018-11-21T09:18:49.581Z,47.79
2018-11-21T09:21:38.237Z,50.92
2018-11-21T09:24:08.522Z,52.10
2018-11-21T09:26:56.868Z,51.95
2018-11-21T09:30:07.702Z,49.57
2018-11-21T09:32:56.113Z,45.01
2018-11-21T09:35:40.453Z,44.21
2018-11-21T09:38:29.638Z,42.58
2018-11-21T09:50:33.264Z,39.97
2018-11-21T09:53:14.060Z,39.55
2018-11-21T09:59:50.529Z,40.99
2018-11-21T10:06:40.067Z,45.75
2018-11-21T10:09:47.816Z,45.88
2018-11-21T10:12:37.293Z,43.96
2018-11-21T10:15:18.246Z,43.12
2018-11-21T10:18:31.603Z,41.68
2018-11-21T10:24:23.848Z,41.42
2018-11-21T10:27:31.341Z,42.63
2018-11-21T10:33:28.854Z,44.86
2018-11-21T10:36:03.755Z,45.94
2018-11-21T10:41:56.016Z,46.83
2018-11-21T10:48:16.217Z,47.45
2018-11-21T10:53:47.622Z,47.72
2018-11-21T10:56:23.695Z,47.39
2018-11-21T10:58:55.709Z,46.72
2018-11-21T11:02:02.905Z,43.74
2018-11-21T11:05:30.522Z,42.74
2018-11-21T11:09:00.298Z,42.56
2018-11-21T11:15:15.528Z,41.13
2018-11-21T11:21:41.117Z,40.20
2018-11-21T11:28:06.162Z,39.20
2018-11-21T11:31:38.091Z,38.54
2018-11-21T11:35:12.589Z,39.40
2018-11-21T11:38:47.286Z,39.69
2018-11-21T11:51:29.046Z,42.91
2018-11-21T11:54:25.622Z,42.49
2018-11-21T11:57:20.574Z,41.10
2018-11-21T12:00:18.902Z,40.86
2018-11-21T12:06:31.149Z,40.49
2018-11-21T12:09:29.762Z,39.62
2018-11-21T12:12:21.495Z,40.58
2018-11-21T12:18:38.203Z,41.61
2018-11-21T12:21:45.733Z,41.52
2018-11-21T12:24:55.354Z,41.61
2018-11-21T12:27:49.289Z,42.43
2018-11-21T12:30:59.407Z,42.70
2018-11-21T12:34:10.315Z,41.97
2018-11-21T12:37:02.549Z,42.30
2018-11-21T12:39:53.787Z,42.58
2018-11-21T12:42:41.296Z,42.54
2018-11-21T12:45:59.084Z,42.29
2018-11-21T12:49:01.553Z,42.46
2018-11-21T12:52:31.625Z,42.72
2018-11-21T12:55:52.976Z,42.71
2018-11-21T12:58:45.449Z,41.01
2018-11-21T13:01:53.688Z,41.97
2018-11-21T13:04:54.477Z,42.37
2018-11-21T13:07:49.712Z,42.87
2018-11-21T13:10:59.686Z,42.79
2018-11-21T13:13:53.087Z,42.98
2018-11-21T13:17:01.496Z,43.80
2018-11-21T13:20:09.865Z,43.88
2018-11-21T13:23:07.890Z,43.69
2018-11-21T13:25:58.200Z,44.28
2018-11-21T13:28:45.888Z,45.02
2018-11-21T13:31:53.676Z,47.32
2018-11-21T13:35:01.019Z,47.29
2018-11-21T13:38:08.351Z,46.97
2018-11-21T13:44:27.100Z,47.06
2018-11-21T13:47:17.155Z,47.36
2018-11-21T13:50:21.220Z,48.10
2018-11-21T13:53:28.832Z,47.87
2018-11-21T14:03:01.310Z,49.61
2018-11-21T14:05:34.791Z,50.15
2018-11-21T14:08:14.528Z,48.99
2018-11-21T14:10:52.289Z,48.84
2018-11-21T14:13:26.373Z,48.77
2018-11-21T14:16:33.907Z,49.46
2018-11-21T14:19:10.871Z,51.15
2018-11-21T14:21:38.655Z,50.03
2018-11-21T14:24:13.976Z,49.49
2018-11-21T14:26:50.569Z,50.01
2018-11-21T14:29:31.751Z,49.73
2018-11-21T14:32:24.208Z,49.80
2018-11-21T14:35:06.774Z,49.59
2018-11-21T14:41:14.767Z,50.95
2018-11-21T14:43:58.586Z,52.28
2018-11-21T14:47:08.415Z,53.28
2018-11-21T14:49:58.463Z,53.93
2018-11-21T14:52:48.006Z,52.72
2018-11-21T14:55:18.295Z,52.29
2018-11-21T14:57:50.598Z,52.83
2018-11-21T15:03:47.948Z,52.31
2018-11-21T15:06:24.411Z,52.39
2018-11-21T15:08:57.353Z,52.59
2018-11-21T15:11:55.819Z,52.60
2018-11-21T15:18:07.372Z,54.94
2018-11-21T15:21:16.669Z,56.11
2018-11-21T15:24:19.670Z,56.48
2018-11-21T15:27:21.310Z,55.82
2018-11-21T15:30:00.081Z,54.77
